createdAt,value
2018-05-18T00:01:26.233Z,15.80
2018-05-18T00:03:54.478Z,16.10
2018-05-18T00:06:22.680Z,16.00
2018-05-18T00:08:51.693Z,16.10
2018-05-18T00:11:20.686Z,16.20
2018-05-18T00:13:48.994Z,16.20
2018-05-18T00:16:17.981Z,16.30
2018-05-18T00:18:46.217Z,16.30
2018-05-18T00:21:14.546Z,16.20
2018-05-18T00:23:42.736Z,16.20
2018-05-18T00:26:10.961Z,16.00
2018-05-18T00:28:39.212Z,16.30
2018-05-18T00:31:07.517Z,16.10
2018-05-18T00:33:36.510Z,16.00
2018-05-18T00:36:04.728Z,16.00
2018-05-18T00:38:32.952Z,15.80
2018-05-18T00:41:01.178Z,15.80
2018-05-18T00:43:29.472Z,16.00
2018-05-18T00:45:57.699Z,16.20
2018-05-18T00:48:25.921Z,16.10
2018-05-18T00:50:54.257Z,16.00
2018-05-18T00:53:22.534Z,15.80
2018-05-18T00:55:51.518Z,16.40
2018-05-18T00:58:19.741Z,16.50
2018-05-18T01:00:47.974Z,16.00
2018-05-18T01:03:16.185Z,15.90
2018-05-18T01:05:44.416Z,15.90
2018-05-18T01:08:12.655Z,15.70
2018-05-18T01:10:40.879Z,16.10
2018-05-18T01:13:09.888Z,16.10
2018-05-18T01:15:38.868Z,16.20
2018-05-18T01:18:07.080Z,16.20
2018-05-18T01:20:35.312Z,15.90
2018-05-18T01:23:03.530Z,16.00
2018-05-18T01:25:31.753Z,15.90
2018-05-18T01:27:59.972Z,15.80
2018-05-18T01:30:28.213Z,16.30
2018-05-18T01:32:57.410Z,16.30
2018-05-18T01:35:26.406Z,16.20
2018-05-18T01:37:56.132Z,15.80
2018-05-18T01:40:24.357Z,15.80
2018-05-18T01:42:52.587Z,15.80
2018-05-18T01:45:20.805Z,15.70
2018-05-18T01:47:49.801Z,15.90
2018-05-18T01:50:18.024Z,15.80
2018-05-18T01:52:46.241Z,15.70
2018-05-18T01:55:14.465Z,15.70
2018-05-18T01:57:42.721Z,15.90
2018-05-18T02:00:10.965Z,15.80
2018-05-18T02:02:39.184Z,15.90
2018-05-18T02:05:07.437Z,15.70
2018-05-18T02:07:36.433Z,15.90
2018-05-18T02:10:05.503Z,15.90
2018-05-18T02:12:33.646Z,15.90
2018-05-18T02:15:01.865Z,15.90
2018-05-18T02:17:30.869Z,15.90
2018-05-18T02:19:59.136Z,15.90
2018-05-18T02:22:28.113Z,15.90
2018-05-18T02:24:57.121Z,16.00
2018-05-18T02:27:26.117Z,15.90
2018-05-18T02:29:55.111Z,15.90
2018-05-18T02:32:23.326Z,15.90
2018-05-18T02:34:52.313Z,15.70
2018-05-18T02:37:20.528Z,15.70
2018-05-18T02:39:48.762Z,16.00
2018-05-18T02:42:17.013Z,16.30
2018-05-18T02:44:45.284Z,16.00
2018-05-18T02:47:14.278Z,16.00
2018-05-18T02:49:42.553Z,16.00
2018-05-18T02:52:10.787Z,16.20
2018-05-18T02:54:39.005Z,16.30
2018-05-18T02:57:07.232Z,16.10
2018-05-18T02:59:36.237Z,16.70
2018-05-18T03:02:05.251Z,16.30
2018-05-18T03:04:34.246Z,16.40
2018-05-18T03:07:02.469Z,16.40
2018-05-18T03:09:30.726Z,16.20
2018-05-18T03:11:59.705Z,16.40
2018-05-18T03:14:27.937Z,16.30
2018-05-18T03:16:56.204Z,16.30
2018-05-18T03:19:25.218Z,16.20
2018-05-18T03:21:54.212Z,16.20
2018-05-18T03:24:22.449Z,16.20
2018-05-18T03:26:50.781Z,15.90
2018-05-18T03:29:18.989Z,15.80
2018-05-18T03:31:47.981Z,15.80
2018-05-18T03:34:16.213Z,15.80
2018-05-18T03:36:44.452Z,15.90
2018-05-18T03:39:12.766Z,15.80
2018-05-18T03:41:41.765Z,16.00
2018-05-18T03:44:10.776Z,15.70
2018-05-18T03:46:39.897Z,16.00
2018-05-18T03:49:08.145Z,16.00
2018-05-18T03:51:36.362Z,15.80
2018-05-18T03:54:05.358Z,15.90
2018-05-18T03:56:34.349Z,16.10
2018-05-18T03:59:02.649Z,16.10
2018-05-18T04:01:43.490Z,16.50
2018-05-18T04:04:23.576Z,16.40
2018-05-18T04:07:03.814Z,16.40
2018-05-18T04:09:32.043Z,16.40
2018-05-18T04:12:00.294Z,16.70
2018-05-18T04:14:28.541Z,16.40
2018-05-18T04:16:57.522Z,16.10
2018-05-18T04:19:25.844Z,16.10
2018-05-18T04:21:54.879Z,16.80
2018-05-18T04:24:23.161Z,16.80
2018-05-18T04:26:51.409Z,16.70
2018-05-18T04:29:19.638Z,16.80
2018-05-18T04:31:47.898Z,16.50
2018-05-18T04:34:16.907Z,17.10
2018-05-18T04:36:45.913Z,16.70
2018-05-18T04:39:14.925Z,16.40
2018-05-18T04:41:43.909Z,16.30
2018-05-18T04:44:12.153Z,16.20
2018-05-18T04:46:40.396Z,16.60
2018-05-18T04:49:09.415Z,16.30
2018-05-18T04:51:37.648Z,16.30
2018-05-18T04:54:05.890Z,16.30
2018-05-18T04:56:34.896Z,16.40
2018-05-18T04:59:03.877Z,16.80
2018-05-18T05:01:32.101Z,16.80
2018-05-18T05:04:01.304Z,16.60
2018-05-18T05:06:30.302Z,17.20
2018-05-18T05:08:59.295Z,16.90
2018-05-18T05:11:27.522Z,16.90
2018-05-18T05:13:55.758Z,16.40
2018-05-18T05:16:23.984Z,16.30
2018-05-18T05:18:52.219Z,16.30
2018-05-18T05:21:20.437Z,16.50
2018-05-18T05:23:49.428Z,16.50
2018-05-18T05:26:17.673Z,16.50
2018-05-18T05:28:46.013Z,16.20
2018-05-18T05:31:14.365Z,16.70
2018-05-18T05:33:42.684Z,16.80
2018-05-18T05:36:10.910Z,17.10
2018-05-18T05:38:39.792Z,17.20
2018-05-18T05:41:08.862Z,17.20
2018-05-18T05:43:37.792Z,16.90
2018-05-18T05:46:06.051Z,16.90
2018-05-18T05:48:34.274Z,16.50
2018-05-18T05:51:02.884Z,16.40
2018-05-18T05:53:31.069Z,16.60
2018-05-18T05:56:00.057Z,16.20
2018-05-18T05:58:28.306Z,16.20
2018-05-18T06:00:56.521Z,16.00
2018-05-18T06:03:24.740Z,16.30
2018-05-18T06:05:53.747Z,16.20
2018-05-18T06:08:22.746Z,16.00
2018-05-18T06:10:51.753Z,16.00
2018-05-18T06:13:19.984Z,16.00
2018-05-18T06:15:48.237Z,16.00
2018-05-18T06:18:17.229Z,16.20
2018-05-18T06:20:46.252Z,16.20
2018-05-18T06:23:15.263Z,16.00
2018-05-18T06:25:44.283Z,16.10
2018-05-18T06:28:12.616Z,16.10
2018-05-18T06:30:40.849Z,16.30
2018-05-18T06:33:09.095Z,16.80
2018-05-18T06:35:37.301Z,16.70
2018-05-18T06:38:05.546Z,16.20
2018-05-18T06:40:33.780Z,15.80
2018-05-18T06:43:02.783Z,15.60
2018-05-18T06:45:31.790Z,15.60
2018-05-18T06:48:00.018Z,15.60
2018-05-18T06:50:28.238Z,15.70
2018-05-18T06:52:56.464Z,15.60
2018-05-18T06:55:25.465Z,15.30
2018-05-18T06:57:54.517Z,15.10
2018-05-18T07:00:22.713Z,15.00
2018-05-18T07:02:50.979Z,15.40
2018-05-18T07:05:20.122Z,15.20
2018-05-18T07:07:48.346Z,15.20
2018-05-18T07:10:17.344Z,15.40
2018-05-18T07:12:45.572Z,15.30
2018-05-18T07:15:13.815Z,15.90
2018-05-18T07:17:42.065Z,15.60
2018-05-18T07:20:10.302Z,15.60
2018-05-18T07:22:38.533Z,15.40
2018-05-18T07:25:06.753Z,15.40
2018-05-18T07:27:34.988Z,15.90
2018-05-18T07:30:03.230Z,16.10
2018-05-18T07:32:31.521Z,16.00
2018-05-18T07:34:59.740Z,16.40
2018-05-18T07:37:28.739Z,15.60
2018-05-18T07:39:57.740Z,15.30
2018-05-18T07:42:26.725Z,15.40
2018-05-18T07:44:56.449Z,15.60
2018-05-18T07:47:24.677Z,15.60
2018-05-18T07:49:52.924Z,15.40
2018-05-18T07:52:21.168Z,15.30
2018-05-18T07:54:49.417Z,15.30
2018-05-18T07:57:17.651Z,15.30
2018-05-18T07:59:45.878Z,15.60
2018-05-18T08:02:14.138Z,15.80
2018-05-18T08:04:43.170Z,15.70
2018-05-18T08:07:11.422Z,16.00
2018-05-18T08:09:39.652Z,15.80
2018-05-18T08:12:07.911Z,15.80
2018-05-18T08:14:36.126Z,15.70
2018-05-18T08:17:04.369Z,15.80
2018-05-18T08:19:32.586Z,16.70
2018-05-18T08:22:01.096Z,16.70
2018-05-18T08:24:29.308Z,17.10
2018-05-18T08:27:10.267Z,16.50
2018-05-18T08:29:38.501Z,16.50
2018-05-18T08:32:06.719Z,15.90
2018-05-18T08:34:34.961Z,15.40
2018-05-18T08:37:03.995Z,15.80
2018-05-18T08:39:32.216Z,15.80
2018-05-18T08:42:00.446Z,15.70
2018-05-18T08:44:29.467Z,16.00
2018-05-18T08:46:58.433Z,16.40
2018-05-18T08:49:26.659Z,16.40
2018-05-18T08:51:54.941Z,16.30
2018-05-18T08:54:23.163Z,16.40
2018-05-18T08:56:51.385Z,16.00
2018-05-18T08:59:19.701Z,15.80
2018-05-18T09:01:48.734Z,15.40
2018-05-18T09:04:16.993Z,15.40
2018-05-18T09:06:46.024Z,15.50
2018-05-18T09:09:14.276Z,15.50
2018-05-18T09:11:43.296Z,16.60
2018-05-18T09:14:12.683Z,16.50
2018-05-18T09:16:40.902Z,16.50
2018-05-18T09:19:09.902Z,17.10
2018-05-18T09:21:38.914Z,17.00
2018-05-18T09:24:07.923Z,16.90
2018-05-18T09:26:36.906Z,16.50
2018-05-18T09:29:05.117Z,16.50
2018-05-18T09:31:34.115Z,16.10
2018-05-18T09:34:03.267Z,16.30
2018-05-18T09:36:31.374Z,16.20
2018-05-18T09:38:59.633Z,16.30
2018-05-18T09:41:27.857Z,16.50
2018-05-18T09:43:56.081Z,16.10
2018-05-18T09:46:24.303Z,15.70
2018-05-18T09:48:52.641Z,15.80
2018-05-18T09:51:20.901Z,15.70
2018-05-18T09:53:49.243Z,16.30
2018-05-18T09:56:17.484Z,16.30
2018-05-18T09:58:45.732Z,16.30
2018-05-18T10:01:14.832Z,16.00
2018-05-18T10:03:43.812Z,16.40
2018-05-18T10:06:12.848Z,16.50
2018-05-18T10:08:41.101Z,16.50
2018-05-18T10:11:09.957Z,16.40
2018-05-18T10:13:38.198Z,17.30
2018-05-18T10:16:07.196Z,16.80
2018-05-18T10:18:37.152Z,16.70
2018-05-18T10:21:05.376Z,16.70
2018-05-18T10:23:33.628Z,16.70
2018-05-18T10:26:02.688Z,17.50
2018-05-18T10:28:30.913Z,17.40
2018-05-18T10:30:59.904Z,16.80
2018-05-18T10:33:28.925Z,16.90
2018-05-18T10:35:57.909Z,16.70
2018-05-18T10:38:26.241Z,16.70
2018-05-18T10:40:54.459Z,16.10
2018-05-18T10:43:22.692Z,16.50
2018-05-18T10:45:51.722Z,16.60
2018-05-18T10:48:19.965Z,16.60
2018-05-18T10:50:48.189Z,16.80
2018-05-18T10:53:16.486Z,17.10
2018-05-18T10:55:44.734Z,16.90
2018-05-18T10:58:14.494Z,17.10
2018-05-18T11:00:42.796Z,17.10
2018-05-18T11:03:11.081Z,17.30
2018-05-18T11:05:39.637Z,17.00
2018-05-18T11:08:07.941Z,16.50
2018-05-18T11:10:36.924Z,16.50
2018-05-18T11:13:05.151Z,16.50
2018-05-18T11:15:33.373Z,16.30
2018-05-18T11:18:01.606Z,16.40
2018-05-18T11:20:29.892Z,16.40
2018-05-18T11:22:58.897Z,16.60
2018-05-18T11:25:27.193Z,16.60
2018-05-18T11:27:56.217Z,16.70
2018-05-18T11:30:25.197Z,16.80
2018-05-18T11:32:53.416Z,16.80
2018-05-18T11:35:21.659Z,17.30
2018-05-18T11:37:49.861Z,17.10
2018-05-18T11:40:18.098Z,16.50
2018-05-18T11:42:46.456Z,17.20
2018-05-18T11:45:15.566Z,17.00
2018-05-18T11:47:44.686Z,17.30
2018-05-18T11:50:12.920Z,17.30
2018-05-18T11:52:42.208Z,17.30
2018-05-18T11:55:10.450Z,16.80
2018-05-18T11:57:38.759Z,16.90
2018-05-18T12:00:07.758Z,17.40
2018-05-18T12:02:36.753Z,17.10
2018-05-18T12:05:04.997Z,17.10
2018-05-18T12:07:33.237Z,16.80
2018-05-18T12:10:02.256Z,17.60
2018-05-18T12:12:30.494Z,17.60
2018-05-18T12:14:58.961Z,17.70
2018-05-18T12:17:27.195Z,17.80
2018-05-18T12:19:55.473Z,17.70
2018-05-18T12:22:23.744Z,17.30
2018-05-18T12:24:52.033Z,16.90
2018-05-18T12:27:20.311Z,16.90
2018-05-18T12:29:49.660Z,17.20
2018-05-18T12:32:17.917Z,16.90
2018-05-18T12:34:46.187Z,16.80
2018-05-18T12:37:14.425Z,17.00
2018-05-18T12:39:42.673Z,17.10
2018-05-18T12:42:10.901Z,17.60
2018-05-18T12:44:39.168Z,17.50
2018-05-18T12:47:07.380Z,17.40
2018-05-18T12:49:35.585Z,17.90
2018-05-18T12:52:04.613Z,17.00
2018-05-18T12:54:32.873Z,17.00
2018-05-18T12:57:01.149Z,16.90
2018-05-18T12:59:29.462Z,17.00
2018-05-18T13:01:58.294Z,16.60
2018-05-18T13:04:26.510Z,16.90
2018-05-18T13:06:54.758Z,16.60
2018-05-18T13:09:23.735Z,16.30
2018-05-18T13:11:51.975Z,16.30
2018-05-18T13:14:20.188Z,16.60
2018-05-18T13:16:48.428Z,16.60
2018-05-18T13:19:16.658Z,16.60
2018-05-18T13:21:44.896Z,16.50
2018-05-18T13:24:13.117Z,16.90
2018-05-18T13:26:41.374Z,17.30
2018-05-18T13:29:09.618Z,17.60
2018-05-18T13:31:37.850Z,17.50
2018-05-18T13:34:06.870Z,18.20
2018-05-18T13:36:35.197Z,18.20
2018-05-18T13:39:03.423Z,17.90
2018-05-18T13:41:32.417Z,17.70
2018-05-18T13:44:00.642Z,17.70
2018-05-18T13:46:28.898Z,17.90
2018-05-18T13:48:57.899Z,18.70
2018-05-18T13:51:26.884Z,18.70
2018-05-18T13:53:55.177Z,18.60
2018-05-18T13:56:23.407Z,18.10
2018-05-18T13:58:51.654Z,17.60
2018-05-18T14:01:19.938Z,17.50
2018-05-18T14:03:48.156Z,17.80
2018-05-18T14:06:17.166Z,17.20
2018-05-18T14:08:45.394Z,17.20
2018-05-18T14:11:13.626Z,16.90
2018-05-18T14:13:42.629Z,17.20
2018-05-18T14:16:11.622Z,17.00
2018-05-18T14:18:39.933Z,17.00
2018-05-18T14:21:08.135Z,16.70
2018-05-18T14:23:36.362Z,17.10
2018-05-18T14:26:04.609Z,16.80
2018-05-18T14:28:33.617Z,16.80
2018-05-18T14:31:01.852Z,16.80
2018-05-18T14:33:30.080Z,16.90
2018-05-18T14:35:59.082Z,17.00
2018-05-18T14:38:28.083Z,17.20
2018-05-18T14:40:57.094Z,17.20
2018-05-18T14:43:26.087Z,17.70
2018-05-18T14:45:54.333Z,17.70
2018-05-18T14:48:22.561Z,17.50
2018-05-18T14:50:50.774Z,17.10
2018-05-18T14:53:19.822Z,17.10
2018-05-18T14:55:48.015Z,17.10
2018-05-18T14:58:17.037Z,17.10
2018-05-18T15:00:45.261Z,17.10
2018-05-18T15:03:14.251Z,16.90
2018-05-18T15:05:43.322Z,16.70
2018-05-18T15:08:12.258Z,16.70
2018-05-18T15:10:41.358Z,16.70
2018-05-18T15:13:09.633Z,16.70
2018-05-18T15:15:37.886Z,17.00
2018-05-18T15:18:06.113Z,16.80
2018-05-18T15:20:34.346Z,17.00
2018-05-18T15:23:03.772Z,16.80
2018-05-18T15:25:32.729Z,17.20
2018-05-18T15:28:00.949Z,17.20
2018-05-18T15:30:29.176Z,17.30
2018-05-18T15:32:57.405Z,17.20
2018-05-18T15:35:26.498Z,17.00
2018-05-18T15:37:54.680Z,17.00
2018-05-18T15:40:22.901Z,17.20
2018-05-18T15:42:51.909Z,16.80
2018-05-18T15:45:20.906Z,16.90
2018-05-18T15:47:49.928Z,16.90
2018-05-18T15:50:18.908Z,16.80
2018-05-18T15:52:47.126Z,16.80
2018-05-18T15:55:15.358Z,16.80
2018-05-18T15:57:43.630Z,16.80
2018-05-18T16:00:11.884Z,16.90
2018-05-18T16:02:40.126Z,17.00
2018-05-18T16:05:08.357Z,17.10
2018-05-18T16:07:38.163Z,17.00
2018-05-18T16:10:06.429Z,17.00
2018-05-18T16:12:34.706Z,16.70
2018-05-18T16:15:02.971Z,16.50
2018-05-18T16:17:31.234Z,16.30
2018-05-18T16:20:00.221Z,16.70
2018-05-18T16:22:28.454Z,16.70
2018-05-18T16:24:56.680Z,16.90
2018-05-18T16:27:24.899Z,16.90
2018-05-18T16:29:53.889Z,17.20
2018-05-18T16:32:22.132Z,17.10
2018-05-18T16:34:50.354Z,17.40
2018-05-18T16:37:19.397Z,18.30
2018-05-18T16:39:47.624Z,18.10
2018-05-18T16:42:15.860Z,17.80
2018-05-18T16:44:44.845Z,16.90
2018-05-18T16:47:14.579Z,16.80
2018-05-18T16:49:42.805Z,16.70
2018-05-18T16:52:11.873Z,16.80
2018-05-18T16:54:40.130Z,16.80
2018-05-18T16:57:08.361Z,17.00
2018-05-18T16:59:37.350Z,16.70
2018-05-18T17:02:06.382Z,16.60
2018-05-18T17:04:35.392Z,16.90
2018-05-18T17:07:03.639Z,16.90
2018-05-18T17:09:31.857Z,17.00
2018-05-18T17:12:00.906Z,17.30
2018-05-18T17:14:29.238Z,17.40
2018-05-18T17:16:57.425Z,17.10
2018-05-18T17:19:25.662Z,17.00
2018-05-18T17:21:53.917Z,16.90
2018-05-18T17:24:22.138Z,16.80
2018-05-18T17:26:50.356Z,17.20
2018-05-18T17:29:18.589Z,16.80
2018-05-18T17:31:47.578Z,17.10
2018-05-18T17:34:15.801Z,17.00
2018-05-18T17:36:44.027Z,17.00
2018-05-18T17:39:12.250Z,16.90
2018-05-18T17:41:40.477Z,17.30
2018-05-18T17:44:08.718Z,17.50
2018-05-18T17:46:36.943Z,17.60
2018-05-18T17:49:05.161Z,17.40
2018-05-18T17:51:33.486Z,17.00
2018-05-18T17:54:01.701Z,17.10
2018-05-18T17:56:30.680Z,17.40
2018-05-18T17:58:58.916Z,17.40
2018-05-18T18:01:27.195Z,17.00
2018-05-18T18:03:56.229Z,17.50
2018-05-18T18:06:24.453Z,17.50
2018-05-18T18:08:52.680Z,17.00
2018-05-18T18:11:20.921Z,16.90
2018-05-18T18:13:49.144Z,17.10
2018-05-18T18:16:18.120Z,16.90
2018-05-18T18:18:46.349Z,16.90
2018-05-18T18:21:14.560Z,17.40
2018-05-18T18:23:42.837Z,17.00
2018-05-18T18:26:11.090Z,16.70
2018-05-18T18:28:40.138Z,16.70
2018-05-18T18:31:08.290Z,16.70
2018-05-18T18:33:37.288Z,16.90
2018-05-18T18:36:06.267Z,17.80
2018-05-18T18:38:34.499Z,17.80
2018-05-18T18:41:02.750Z,18.40
2018-05-18T18:43:30.961Z,18.10
2018-05-18T18:46:00.036Z,17.80
2018-05-18T18:48:28.348Z,17.80
2018-05-18T18:50:57.341Z,18.20
2018-05-18T18:53:25.636Z,18.20
2018-05-18T18:55:53.885Z,18.40
2018-05-18T18:58:22.102Z,17.80
2018-05-18T19:00:50.317Z,17.40
2018-05-18T19:03:19.311Z,17.10
2018-05-18T19:05:47.518Z,17.10
2018-05-18T19:08:15.798Z,17.50
2018-05-18T19:10:43.965Z,17.80
2018-05-18T19:13:12.195Z,17.90
2018-05-18T19:15:40.425Z,17.70
2018-05-18T19:18:08.658Z,17.50
2018-05-18T19:20:37.108Z,17.30
2018-05-18T19:23:06.086Z,17.20
2018-05-18T19:25:34.338Z,17.20
2018-05-18T19:28:03.325Z,17.10
2018-05-18T19:30:32.340Z,16.80
2018-05-18T19:33:00.564Z,16.80
2018-05-18T19:35:29.553Z,16.80
2018-05-18T19:37:57.821Z,16.60
2018-05-18T19:40:26.830Z,16.50
2018-05-18T19:42:55.820Z,16.50
2018-05-18T19:45:24.039Z,16.50
2018-05-18T19:47:52.273Z,16.50
2018-05-18T19:50:20.495Z,16.50
2018-05-18T19:52:49.484Z,16.70
2018-05-18T19:55:17.704Z,16.60
2018-05-18T19:57:45.927Z,16.60
2018-05-18T20:00:14.210Z,17.00
2018-05-18T20:02:43.182Z,17.50
2018-05-18T20:05:12.181Z,17.10
2018-05-18T20:07:41.184Z,16.90
2018-05-18T20:10:09.408Z,16.90
2018-05-18T20:12:37.679Z,16.70
2018-05-18T20:15:06.845Z,16.50
2018-05-18T20:17:35.056Z,16.50
2018-05-18T20:20:04.057Z,16.40
2018-05-18T20:22:33.064Z,16.40
2018-05-18T20:25:02.153Z,16.50
2018-05-18T20:27:30.352Z,16.50
2018-05-18T20:29:58.586Z,16.30
2018-05-18T20:32:26.818Z,16.20
2018-05-18T20:34:55.048Z,16.40
2018-05-18T20:37:23.292Z,16.40
2018-05-18T20:39:51.508Z,16.50
2018-05-18T20:42:20.496Z,16.70
2018-05-18T20:44:48.725Z,16.70
2018-05-18T20:47:16.941Z,16.80
2018-05-18T20:49:45.169Z,16.70
2018-05-18T20:52:14.179Z,16.70
2018-05-18T20:54:43.175Z,16.60
2018-05-18T20:57:11.395Z,16.60
2018-05-18T20:59:39.618Z,16.60
2018-05-18T21:02:07.842Z,16.70
2018-05-18T21:04:36.833Z,16.80
2018-05-18T21:07:05.070Z,16.80
2018-05-18T21:09:33.319Z,17.00
2018-05-18T21:12:01.539Z,16.60
2018-05-18T21:14:29.753Z,16.60
2018-05-18T21:16:57.998Z,16.40
2018-05-18T21:19:26.989Z,16.50
2018-05-18T21:21:55.208Z,16.50
2018-05-18T21:24:23.421Z,16.20
2018-05-18T21:26:51.644Z,16.40
2018-05-18T21:29:19.947Z,16.50
2018-05-18T21:31:48.953Z,16.40
2018-05-18T21:34:17.942Z,16.30
2018-05-18T21:36:46.158Z,16.30
2018-05-18T21:39:15.148Z,16.60
2018-05-18T21:41:43.378Z,16.60
2018-05-18T21:44:11.592Z,16.40
2018-05-18T21:46:39.824Z,16.30
2018-05-18T21:49:08.824Z,16.10
2018-05-18T21:51:37.813Z,16.10
2018-05-18T21:54:06.053Z,16.00
2018-05-18T21:56:34.305Z,16.00
2018-05-18T21:59:04.342Z,16.10
2018-05-18T22:01:33.422Z,16.10
2018-05-18T22:04:01.603Z,16.00
2018-05-18T22:06:29.858Z,16.10
2018-05-18T22:08:58.810Z,16.50
2018-05-18T22:11:27.038Z,16.40
2018-05-18T22:13:55.292Z,16.20
2018-05-18T22:16:23.493Z,16.10
2018-05-18T22:18:52.478Z,17.00
2018-05-18T22:21:20.711Z,17.00
2018-05-18T22:23:48.932Z,16.60
2018-05-18T22:26:17.153Z,16.30
2018-05-18T22:28:45.381Z,16.30
2018-05-18T22:31:13.618Z,16.30
2018-05-18T22:33:41.833Z,16.20
2018-05-18T22:36:10.057Z,16.00
2018-05-18T22:38:38.386Z,16.00
2018-05-18T22:41:06.609Z,16.00
2018-05-18T22:43:34.850Z,15.90
2018-05-18T22:46:03.084Z,16.00
2018-05-18T22:48:31.324Z,15.90
2018-05-18T22:50:59.541Z,15.90
2018-05-18T22:53:28.537Z,16.00
2018-05-18T22:55:57.525Z,16.00
2018-05-18T22:58:25.753Z,16.00
2018-05-18T23:00:53.965Z,16.00
2018-05-18T23:03:22.203Z,16.00
2018-05-18T23:05:50.415Z,16.10
2018-05-18T23:08:18.654Z,16.00
2018-05-18T23:10:46.872Z,16.00
2018-05-18T23:13:15.862Z,15.80
2018-05-18T23:15:44.089Z,15.80
2018-05-18T23:18:12.316Z,15.80
2018-05-18T23:20:40.556Z,15.90
2018-05-18T23:23:09.553Z,16.10
2018-05-18T23:25:38.633Z,16.10
2018-05-18T23:28:07.660Z,16.10
2018-05-18T23:30:36.645Z,16.40
2018-05-18T23:33:06.407Z,16.00
2018-05-18T23:35:35.475Z,16.00
2018-05-18T23:38:03.714Z,15.90
2018-05-18T23:40:31.929Z,15.80
2018-05-18T23:43:00.161Z,15.80
2018-05-18T23:45:29.156Z,15.80
2018-05-18T23:47:57.382Z,15.80
2018-05-18T23:50:25.621Z,16.00
2018-05-18T23:52:53.846Z,16.30
2018-05-18T23:55:22.069Z,16.50
2018-05-18T23:57:50.295Z,16.60
